Time;durP1;ratioP1;P1;durP2;ratioP2;P2;SDS_P1;SDS_P2;PMS_P1;PMS_P2;Temp;Humidity;BMP_temperature;BMP_pressure;BME280_temperature;BME280_humidity;BME280_pressure;Samples;Min_cycle;Max_cycle;Signal;HPM_P1;HPM_P2
2021/03/22 00:00:00;;;;;;;29.80;5.80;;;1.70;99.90;;;;;;5039138;28;20032;-55
2021/03/22 00:02:46;;;;;;;31.15;5.78;;;1.70;99.90;;;;;;5035857;28;20055;-52
2021/03/22 00:05:33;;;;;;;30.77;4.40;;;1.80;99.90;;;;;;5031958;28;20398;-55
2021/03/22 00:08:20;;;;;;;34.38;5.00;;;1.80;99.90;;;;;;5034918;28;20032;-54
2021/03/22 00:11:06;;;;;;;34.25;6.47;;;1.80;99.90;;;;;;5023091;28;20056;-51
2021/03/22 00:13:52;;;;;;;34.07;4.63;;;1.80;99.90;;;;;;5021778;28;20075;-50
2021/03/22 00:16:38;;;;;;;26.63;3.90;;;1.80;99.90;;;;;;5024597;28;20068;-50
2021/03/22 00:19:24;;;;;;;23.87;5.00;;;2.00;99.90;;;;;;5010113;28;20716;-53
2021/03/22 00:22:10;;;;;;;32.83;4.53;;;1.90;99.90;;;;;;5013823;28;20025;-55
2021/03/22 00:24:55;;;;;;;23.65;5.15;;;1.90;99.90;;;;;;5006366;28;20105;-51
2021/03/22 00:27:41;;;;;;;26.35;6.18;;;1.90;99.90;;;;;;5022209;28;20041;-55
2021/03/22 00:30:34;;;;;;;22.90;4.80;;;1.90;99.90;;;;;;5021651;28;20475;-57
2021/03/22 00:33:22;;;;;;;24.50;5.13;;;1.90;99.90;;;;;;5019004;28;20064;-56
2021/03/22 00:36:09;;;;;;;28.85;6.22;;;1.80;99.90;;;;;;5013100;28;20041;-53
2021/03/22 00:38:55;;;;;;;;;;;1.80;99.90;;;;;;5022914;28;20056;-54
2021/03/22 00:41:40;;;;;;;16.92;3.80;;;1.80;99.90;;;;;;5023741;28;19913;-54
2021/03/22 00:44:26;;;;;;;11.90;3.20;;;1.80;99.90;;;;;;5025447;28;20116;-55
2021/03/22 00:47:12;;;;;;;20.58;4.82;;;1.80;99.90;;;;;;5021945;28;20751;-52
2021/03/22 00:49:58;;;;;;;22.13;4.70;;;1.80;99.90;;;;;;5022317;28;20018;-55
2021/03/22 00:52:44;;;;;;;20.60;3.67;;;1.80;99.90;;;;;;5014519;28;20431;-56
2021/03/22 00:55:30;;;;;;;24.88;4.78;;;1.90;99.90;;;;;;5025639;28;20033;-54
2021/03/22 00:58:16;;;;;;;27.23;4.60;;;1.80;99.90;;;;;;5015293;28;20037;-53
2021/03/22 01:01:03;;;;;;;22.40;4.03;;;1.90;99.90;;;;;;5015251;28;20037;-56
2021/03/22 01:03:49;;;;;;;22.70;4.13;;;1.90;99.90;;;;;;5020471;28;20041;-54
2021/03/22 01:06:35;;;;;;;20.13;4.20;;;1.90;99.90;;;;;;5010205;28;20066;-58
2021/03/22 01:09:21;;;;;;;15.27;3.20;;;1.90;99.90;;;;;;5015014;28;20025;-53
2021/03/22 01:12:07;;;;;;;19.80;3.83;;;2.00;99.90;;;;;;5009589;28;20033;-57
2021/03/22 01:14:53;;;;;;;15.45;3.42;;;2.00;99.90;;;;;;5023377;28;20041;-58
2021/03/22 01:17:39;;;;;;;15.25;3.58;;;2.00;99.90;;;;;;5023684;28;20041;-58
2021/03/22 01:20:41;;;;;;;14.45;3.20;;;1.90;99.90;;;;;;5013039;28;20033;-54
2021/03/22 01:23:27;;;;;;;18.10;2.75;;;1.90;99.90;;;;;;5014104;28;20903;-53
2021/03/22 01:26:15;;;;;;;12.10;3.10;;;1.90;99.90;;;;;;5012045;28;20108;-59
2021/03/22 01:29:11;;;;;;;15.70;3.10;;;1.90;99.90;;;;;;5031397;28;20041;-54
2021/03/22 01:31:59;;;;;;;16.42;2.92;;;2.00;99.90;;;;;;5021812;28;20048;-54
2021/03/22 01:34:45;;;;;;;13.15;2.53;;;2.00;99.90;;;;;;5016457;28;20657;-55
2021/03/22 01:37:31;;;;;;;17.80;3.40;;;2.00;99.90;;;;;;5008831;28;20045;-54
2021/03/22 01:40:48;;;;;;;12.83;3.20;;;2.00;99.90;;;;;;5011995;28;20034;-53
2021/03/22 01:43:34;;;;;;;21.08;2.72;;;1.90;99.90;;;;;;5021615;28;20083;-54
2021/03/22 01:46:21;;;;;;;10.50;2.47;;;1.90;99.90;;;;;;5009991;28;20039;-56
2021/03/22 01:49:07;;;;;;;9.23;2.60;;;1.90;99.90;;;;;;5023540;28;20041;-56
2021/03/22 01:51:55;;;;;;;12.95;2.90;;;1.90;99.90;;;;;;5016470;28;20035;-56
2021/03/22 01:54:41;;;;;;;6.80;2.17;;;1.90;99.90;;;;;;5015532;28;20034;-56
2021/03/22 01:57:29;;;;;;;10.20;2.25;;;1.90;99.90;;;;;;5015635;28;20556;-58
2021/03/22 02:00:32;;;;;;;14.85;3.17;;;1.80;99.90;;;;;;5013135;28;20065;-56
2021/03/22 02:03:18;;;;;;;9.70;2.28;;;1.80;99.90;;;;;;5009890;28;20033;-52
2021/03/22 02:06:04;;;;;;;4.95;1.90;;;1.70;99.90;;;;;;5012658;28;20034;-54
2021/03/22 02:08:52;;;;;;;7.50;2.33;;;1.70;99.90;;;;;;5020180;28;20034;-54
2021/03/22 02:11:38;;;;;;;5.03;2.13;;;1.70;99.90;;;;;;5017356;28;20096;-57
2021/03/22 02:14:25;;;;;;;10.48;2.53;;;1.80;99.90;;;;;;5010133;28;20044;-59
2021/03/22 02:17:29;;;;;;;6.88;2.25;;;1.70;99.90;;;;;;5023795;28;20041;-54
2021/03/22 02:20:53;;;;;;;13.48;2.35;;;1.70;99.90;;;;;;5024173;28;20045;-51
2021/03/22 02:24:04;;;;;;;9.60;2.90;;;1.80;99.90;;;;;;5008934;28;20030;-54
2021/03/22 02:26:59;;;;;;;10.65;2.80;;;1.80;99.90;;;;;;5016618;28;20021;-52
2021/03/22 02:30:19;;;;;;;12.10;2.80;;;1.80;99.90;;;;;;5014090;28;20500;-54
2021/03/22 02:33:47;;;;;;;6.93;2.65;;;1.80;99.90;;;;;;5025152;28;20544;-55
2021/03/22 02:36:48;;;;;;;10.68;2.40;;;1.80;99.90;;;;;;5012995;28;20108;-55
2021/03/22 02:39:56;;;;;;;8.73;2.67;;;1.80;99.90;;;;;;5019824;28;20059;-56
2021/03/22 02:42:45;;;;;;;;;;;1.80;99.90;;;;;;5016581;28;20048;-53
2021/03/22 02:45:37;;;;;;;7.13;3.10;;;1.80;99.90;;;;;;5008339;28;19917;-54
2021/03/22 02:48:26;;;;;;;11.45;3.10;;;1.80;99.90;;;;;;5022809;28;20041;-55
2021/03/22 02:51:21;;;;;;;7.75;2.58;;;1.80;99.90;;;;;;5012978;28;20691;-57
2021/03/22 02:54:41;;;;;;;6.68;2.72;;;1.80;99.90;;;;;;5012693;28;20576;-55
2021/03/22 02:57:48;;;;;;;7.43;2.38;;;1.80;99.90;;;;;;5020411;28;20029;-55
2021/03/22 03:00:39;;;;;;;9.57;2.70;;;1.70;99.90;;;;;;5016330;28;20039;-53
2021/03/22 03:03:27;;;;;;;9.98;2.50;;;1.60;99.90;;;;;;5019910;28;20067;-54
2021/03/22 03:06:13;;;;;;;9.82;2.00;;;1.60;99.90;;;;;;5010986;28;20025;-54
2021/03/22 03:08:58;;;;;;;10.57;2.67;;;1.70;99.90;;;;;;5025192;28;20029;-60
2021/03/22 03:11:45;;;;;;;4.07;1.37;;;1.70;99.90;;;;;;5004992;28;20126;-57
2021/03/22 03:14:30;;;;;;;6.32;1.88;;;1.70;99.90;;;;;;5023336;28;20029;-57
2021/03/22 03:17:17;;;;;;;5.65;1.38;;;1.70;99.90;;;;;;5021772;28;20601;-55
2021/03/22 03:20:12;;;;;;;4.43;1.30;;;1.70;99.90;;;;;;5014806;28;20029;-55
2021/03/22 03:23:00;;;;;;;2.30;1.23;;;1.70;99.90;;;;;;5016999;28;20646;-59
2021/03/22 03:25:46;;;;;;;2.55;1.10;;;1.70;99.90;;;;;;5010631;28;20036;-56
2021/03/22 03:28:32;;;;;;;5.50;2.00;;;1.60;99.90;;;;;;5012400;28;20085;-57
2021/03/22 03:31:18;;;;;;;3.43;1.17;;;1.60;99.90;;;;;;5019256;28;20121;-58
2021/03/22 03:34:07;;;;;;;3.17;1.20;;;1.60;99.90;;;;;;5008052;28;20088;-58
2021/03/22 03:36:53;;;;;;;3.95;1.40;;;1.70;99.90;;;;;;5009532;28;20083;-56
2021/03/22 03:39:40;;;;;;;4.53;1.60;;;1.70;99.90;;;;;;5025068;28;20824;-53
2021/03/22 03:42:26;;;;;;;11.25;2.00;;;1.70;99.90;;;;;;5016058;28;20060;-54
2021/03/22 03:45:13;;;;;;;5.45;1.88;;;1.80;99.90;;;;;;5019079;28;20029;-55
2021/03/22 03:47:59;;;;;;;8.70;2.50;;;1.80;99.90;;;;;;5019188;28;20563;-53
2021/03/22 03:50:46;;;;;;;12.13;3.17;;;1.80;99.90;;;;;;5001200;28;20084;-52
2021/03/22 03:53:32;;;;;;;6.22;2.95;;;1.80;99.90;;;;;;5022647;28;20634;-52
2021/03/22 03:56:19;;;;;;;9.57;2.22;;;1.70;99.90;;;;;;5024287;28;20033;-57
2021/03/22 03:59:06;;;;;;;8.48;1.73;;;1.70;99.90;;;;;;5019382;28;20029;-55
2021/03/22 04:01:52;;;;;;;9.43;2.33;;;1.70;99.90;;;;;;5024778;28;20067;-51
2021/03/22 04:04:38;;;;;;;8.93;2.40;;;1.70;99.90;;;;;;5016372;28;20034;-57
2021/03/22 04:07:24;;;;;;;3.65;1.75;;;1.70;99.90;;;;;;4998801;28;20029;-52
2021/03/22 04:10:11;;;;;;;7.73;2.60;;;1.70;99.90;;;;;;5009143;28;20037;-55
2021/03/22 04:12:57;;;;;;;8.10;3.05;;;1.80;99.90;;;;;;5021743;28;20037;-54
2021/03/22 04:15:43;;;;;;;9.63;3.40;;;1.80;99.90;;;;;;5031306;28;20140;-54
2021/03/22 04:18:29;;;;;;;11.70;3.07;;;1.80;99.90;;;;;;5011282;28;20578;-51
2021/03/22 04:21:20;;;;;;;14.07;3.17;;;1.80;99.90;;;;;;5009504;28;20033;-52
2021/03/22 04:24:06;;;;;;;12.18;2.97;;;1.90;99.90;;;;;;5014402;28;20532;-51
2021/03/22 04:26:52;;;;;;;;;;;1.90;99.90;;;;;;5024463;28;20076;-58
2021/03/22 04:29:38;;;;;;;16.90;3.03;;;1.90;99.90;;;;;;5030070;28;19992;-56
2021/03/22 04:32:24;;;;;;;4.65;2.00;;;1.80;99.90;;;;;;5024917;28;20033;-54
2021/03/22 04:35:11;;;;;;;10.25;2.55;;;1.80;99.90;;;;;;5014345;28;20025;-57
2021/03/22 04:37:57;;;;;;;9.25;2.47;;;1.80;99.90;;;;;;5019033;28;20087;-57
2021/03/22 04:40:43;;;;;;;13.33;2.93;;;1.70;99.90;;;;;;5024143;28;20640;-54
2021/03/22 04:43:29;;;;;;;17.33;3.10;;;1.80;99.90;;;;;;5022269;28;20037;-52
2021/03/22 04:46:15;;;;;;;16.00;3.33;;;1.70;99.90;;;;;;5012231;28;20041;-55
2021/03/22 04:49:01;;;;;;;12.38;3.72;;;1.80;99.90;;;;;;5031413;28;20029;-55
2021/03/22 04:51:47;;;;;;;10.43;3.92;;;1.70;99.90;;;;;;5016349;28;20038;-53
2021/03/22 04:54:33;;;;;;;15.63;3.65;;;1.80;99.90;;;;;;5021772;28;20729;-54
2021/03/22 04:57:27;;;;;;;16.98;5.38;;;1.80;99.90;;;;;;5013198;28;20032;-58
2021/03/22 05:00:18;;;;;;;8.18;3.65;;;1.80;99.90;;;;;;5011612;28;20079;-54
2021/03/22 05:03:09;;;;;;;8.75;3.83;;;1.70;99.90;;;;;;5020559;28;20025;-55
2021/03/22 05:05:55;;;;;;;9.45;2.90;;;1.80;99.90;;;;;;5016740;28;20041;-57
2021/03/22 05:08:41;;;;;;;10.73;2.77;;;1.70;99.90;;;;;;5028138;28;20117;-54
2021/03/22 05:11:27;;;;;;;6.63;2.55;;;1.70;99.90;;;;;;5013764;28;20036;-54
2021/03/22 05:14:13;;;;;;;6.03;2.50;;;1.70;99.90;;;;;;5013923;28;20422;-52
2021/03/22 05:16:59;;;;;;;5.68;2.38;;;1.80;99.90;;;;;;5007152;28;20040;-55
2021/03/22 05:19:45;;;;;;;4.43;2.10;;;1.70;99.90;;;;;;5028031;28;20037;-56
2021/03/22 05:22:31;;;;;;;8.53;2.23;;;1.80;99.90;;;;;;4999371;28;20267;-57
2021/03/22 05:25:18;;;;;;;6.03;3.10;;;1.90;99.90;;;;;;5013150;28;20028;-56
2021/03/22 05:28:06;;;;;;;11.80;3.47;;;1.90;99.90;;;;;;5023060;28;20025;-54
2021/03/22 05:30:52;;;;;;;9.10;3.70;;;1.80;99.90;;;;;;5024182;28;20118;-54
2021/03/22 05:33:38;;;;;;;21.23;5.82;;;1.90;99.90;;;;;;5019389;28;20029;-54
2021/03/22 05:36:24;;;;;;;17.63;4.95;;;1.90;99.90;;;;;;5006559;28;20408;-54
2021/03/22 05:39:10;;;;;;;8.67;3.40;;;1.80;99.90;;;;;;5004964;28;20055;-57
2021/03/22 05:42:21;;;;;;;15.88;4.00;;;1.80;99.90;;;;;;5022043;28;20276;-52
2021/03/22 05:45:27;;;;;;;12.55;3.58;;;1.90;99.90;;;;;;5022778;28;20634;-55
2021/03/22 05:48:50;;;;;;;7.70;2.80;;;1.90;99.90;;;;;;5026730;28;20756;-55
2021/03/22 05:51:49;;;;;;;7.57;2.35;;;1.90;99.90;;;;;;5029518;28;20040;-55
2021/03/22 05:54:53;;;;;;;7.85;2.25;;;2.00;99.90;;;;;;5024082;28;20514;-57
2021/03/22 05:57:21;;;;;;;5.15;2.20;;;2.00;99.90;;;;;;4990309;28;20045;-54
2021/03/22 06:00:02;;;;;;;4.50;2.25;;;2.10;99.90;;;;;;5032067;28;20253;-50
2021/03/22 06:03:03;;;;;;;5.28;3.00;;;2.10;99.90;;;;;;5018890;28;20161;-56
2021/03/22 06:05:35;;;;;;;15.68;3.90;;;2.10;99.90;;;;;;5017529;28;20033;-55
2021/03/22 06:08:27;;;;;;;7.68;3.17;;;2.00;99.90;;;;;;5027596;28;20140;-55
2021/03/22 06:11:27;;;;;;;8.52;3.25;;;2.00;99.90;;;;;;5021502;28;20036;-58
2021/03/22 06:14:17;;;;;;;17.88;3.78;;;1.90;99.90;;;;;;5019700;28;20029;-58
2021/03/22 06:16:57;;;;;;;8.95;3.60;;;1.90;99.90;;;;;;5031732;28;20044;-54
2021/03/22 06:19:23;;;;;;;11.82;2.97;;;2.00;99.90;;;;;;5035410;28;20476;-54
2021/03/22 06:21:49;;;;;;;12.70;3.15;;;1.90;99.90;;;;;;5028649;28;20029;-55
2021/03/22 06:24:28;;;;;;;12.63;3.92;;;2.00;99.90;;;;;;5025001;28;20033;-52
2021/03/22 06:26:56;;;;;;;11.48;3.35;;;2.00;99.90;;;;;;5023879;28;20027;-53
2021/03/22 06:29:34;;;;;;;12.73;3.22;;;2.00;99.90;;;;;;5033075;28;20029;-52
2021/03/22 06:32:11;;;;;;;14.10;4.65;;;2.00;99.90;;;;;;5025294;28;20041;-52
2021/03/22 06:34:39;;;;;;;;;;;2.00;99.90;;;;;;5016697;28;20029;-52
2021/03/22 06:37:06;;;;;;;21.48;4.88;;;2.00;99.90;;;;;;5032998;28;20030;-57
2021/03/22 06:39:31;;;;;;;11.57;4.72;;;2.00;99.90;;;;;;5042851;28;20043;-59
2021/03/22 06:41:58;;;;;;;20.08;5.03;;;2.00;99.90;;;;;;5029869;28;20025;-53
2021/03/22 06:44:32;;;;;;;15.60;5.32;;;2.00;99.90;;;;;;5026760;28;20037;-54
2021/03/22 06:47:12;;;;;;;23.00;6.28;;;2.00;99.90;;;;;;5034661;28;20797;-56
2021/03/22 06:49:43;;;;;;;17.95;5.10;;;2.00;99.90;;;;;;5035688;28;20021;-54
2021/03/22 06:52:21;;;;;;;21.15;6.00;;;2.00;99.90;;;;;;5034851;28;20033;-56
2021/03/22 06:55:25;;;;;;;16.13;5.47;;;2.00;99.90;;;;;;5026003;28;20076;-56
2021/03/22 06:58:25;;;;;;;12.77;5.40;;;2.00;99.90;;;;;;5027651;28;20039;-55
2021/03/22 07:01:18;;;;;;;9.80;3.10;;;2.10;99.90;;;;;;5020079;28;20037;-58
2021/03/22 07:04:28;;;;;;;11.95;3.38;;;2.20;99.90;;;;;;5023595;28;20056;-55
2021/03/22 07:07:22;;;;;;;7.05;2.63;;;2.20;99.90;;;;;;5014095;28;20666;-57
2021/03/22 07:10:16;;;;;;;9.65;3.20;;;2.10;99.90;;;;;;5018126;28;20036;-62
2021/03/22 07:13:14;;;;;;;12.70;3.83;;;2.10;99.90;;;;;;5022854;28;20048;-59
2021/03/22 07:16:38;;;;;;;9.50;3.28;;;2.10;99.90;;;;;;5005967;28;20520;-57
2021/03/22 07:19:23;;;;;;;10.00;2.95;;;2.00;99.90;;;;;;4985275;28;20049;-57
2021/03/22 07:22:21;;;;;;;8.27;2.47;;;2.10;99.90;;;;;;5026646;28;20083;-56
2021/03/22 07:25:22;;;;;;;5.65;2.83;;;2.00;99.90;;;;;;5017324;28;20519;-56
2021/03/22 07:28:19;;;;;;;9.75;3.42;;;2.10;99.90;;;;;;5021934;28;20100;-58
2021/03/22 07:31:16;;;;;;;9.02;3.45;;;2.20;99.90;;;;;;5013591;28;20091;-57
2021/03/22 07:34:23;;;;;;;18.27;5.97;;;2.30;99.90;;;;;;5014267;28;20713;-55
2021/03/22 07:37:47;;;;;;;14.80;5.15;;;2.20;99.90;;;;;;5016541;28;20030;-53
2021/03/22 07:41:06;;;;;;;13.27;4.60;;;2.20;99.90;;;;;;5026246;28;20299;-57
2021/03/22 07:44:19;;;;;;;16.67;5.32;;;2.30;99.90;;;;;;5025024;28;20926;-58
2021/03/22 07:47:22;;;;;;;26.98;5.60;;;2.30;99.90;;;;;;5015336;28;20032;-55
2021/03/22 07:50:20;;;;;;;25.42;5.63;;;2.20;99.90;;;;;;5016121;28;20089;-55
2021/03/22 07:53:32;;;;;;;28.05;6.47;;;2.20;99.90;;;;;;5029929;28;20095;-58
2021/03/22 07:56:32;;;;;;;15.75;5.03;;;2.20;99.90;;;;;;5026755;28;20031;-53
2021/03/22 07:59:44;;;;;;;19.73;5.57;;;2.20;99.90;;;;;;5020272;28;20572;-55
2021/03/22 08:02:35;;;;;;;21.85;4.90;;;2.30;99.90;;;;;;5011048;28;20152;-60
2021/03/22 08:05:34;;;;;;;18.35;5.65;;;2.30;99.90;;;;;;5021411;28;20029;-55
2021/03/22 08:08:45;;;;;;;16.70;5.35;;;2.30;99.90;;;;;;5021368;28;20057;-56
2021/03/22 08:11:48;;;;;;;19.90;4.93;;;2.30;99.90;;;;;;5012480;28;20029;-55
2021/03/22 08:14:37;;;;;;;12.88;3.83;;;2.40;99.90;;;;;;5029340;28;20678;-59
2021/03/22 08:17:34;;;;;;;12.65;4.15;;;2.40;99.90;;;;;;5007723;28;20045;-56
2021/03/22 08:20:43;;;;;;;;;;;2.50;99.90;;;;;;5014030;28;20043;-58
2021/03/22 08:23:42;;;;;;;9.20;3.88;;;2.50;99.90;;;;;;5014827;28;20687;-55
2021/03/22 08:26:34;;;;;;;17.60;4.32;;;2.60;99.90;;;;;;5008783;28;20049;-57
2021/03/22 08:29:14;;;;;;;9.93;3.80;;;2.70;99.90;;;;;;5030111;28;20025;-53
2021/03/22 08:31:49;;;;;;;10.07;3.33;;;2.70;99.90;;;;;;5018686;28;20037;-54
2021/03/22 08:34:30;;;;;;;9.33;2.83;;;2.50;99.90;;;;;;5033228;28;20452;-52
2021/03/22 08:37:07;;;;;;;6.65;2.67;;;2.50;99.90;;;;;;5026717;28;20037;-55
2021/03/22 08:39:48;;;;;;;6.60;2.58;;;2.70;99.90;;;;;;5028295;28;20044;-54
2021/03/22 08:42:52;;;;;;;11.60;3.80;;;2.70;99.90;;;;;;5031947;28;20112;-54
2021/03/22 08:45:26;;;;;;;9.45;3.13;;;2.60;99.90;;;;;;5032575;28;20493;-55
2021/03/22 08:48:19;;;;;;;9.48;4.30;;;2.50;99.90;;;;;;5029076;28;20041;-57
2021/03/22 08:51:12;;;;;;;8.52;3.10;;;2.50;99.90;;;;;;5025826;28;20102;-57
2021/03/22 08:53:59;;;;;;;10.40;2.38;;;2.60;99.90;;;;;;5014631;28;20087;-53
2021/03/22 08:56:59;;;;;;;5.38;2.33;;;2.60;99.90;;;;;;5022752;28;20104;-57
2021/03/22 08:59:46;;;;;;;5.78;2.80;;;2.60;99.90;;;;;;5020563;28;20068;-54
2021/03/22 09:02:33;;;;;;;8.98;3.42;;;2.60;99.90;;;;;;5025501;28;20033;-57
2021/03/22 09:05:20;;;;;;;;;;;2.70;99.90;;;;;;5020811;28;20025;-54
2021/03/22 09:08:21;;;;;;;5.30;2.47;;;2.80;99.90;;;;;;5020674;28;19909;-58
2021/03/22 09:11:27;;;;;;;7.88;3.30;;;2.90;99.90;;;;;;5000525;28;20338;-59
2021/03/22 09:14:16;;;;;;;6.57;2.47;;;3.10;99.90;;;;;;5020104;28;20033;-56
2021/03/22 09:17:04;;;;;;;4.78;1.40;;;3.40;99.90;;;;;;5016077;28;20052;-51
2021/03/22 09:20:13;;;;;;;8.07;2.30;;;3.50;99.90;;;;;;4999645;28;20675;-56
2021/03/22 09:23:04;;;;;;;5.32;2.15;;;3.60;99.90;;;;;;5013930;28;20048;-54
2021/03/22 09:25:56;;;;;;;12.30;2.53;;;3.60;99.90;;;;;;5015225;28;20029;-55
2021/03/22 09:28:56;;;;;;;3.67;1.55;;;3.50;99.90;;;;;;5023781;28;20701;-54
2021/03/22 09:31:43;;;;;;;4.35;1.90;;;3.60;99.90;;;;;;5012472;28;20029;-58
2021/03/22 09:34:41;;;;;;;2.60;1.30;;;3.60;99.90;;;;;;5008323;28;20039;-56
2021/03/22 09:37:50;;;;;;;2.85;1.40;;;3.30;99.90;;;;;;5016007;28;20680;-55
2021/03/22 09:40:36;;;;;;;2.45;1.40;;;3.20;99.90;;;;;;5012131;28;20033;-58
2021/03/22 09:43:33;;;;;;;7.30;4.75;;;3.10;99.90;;;;;;5021197;28;20098;-56
2021/03/22 09:46:31;;;;;;;2.33;1.38;;;3.30;99.90;;;;;;5018883;28;20122;-57
2021/03/22 09:49:21;;;;;;;5.10;1.30;;;3.30;99.90;;;;;;5018264;28;20501;-58
2021/03/22 09:52:24;;;;;;;4.68;1.50;;;3.40;99.90;;;;;;5012228;28;20025;-60
2021/03/22 09:55:25;;;;;;;1.98;1.20;;;3.40;99.90;;;;;;5012583;28;20877;-57
2021/03/22 09:58:42;;;;;;;2.80;1.17;;;3.50;99.90;;;;;;5016683;28;20043;-55
2021/03/22 10:01:31;;;;;;;7.45;1.35;;;3.70;99.90;;;;;;4998489;28;20042;-55
2021/03/22 10:04:22;;;;;;;2.85;1.02;;;4.00;99.90;;;;;;5017901;28;20040;-54
2021/03/22 10:07:18;;;;;;;2.85;1.10;;;4.30;99.90;;;;;;5020009;28;20036;-55
2021/03/22 10:09:51;;;;;;;1.45;0.88;;;4.50;99.90;;;;;;5022933;28;20638;-54
2021/03/22 10:12:28;;;;;;;1.75;0.90;;;4.70;99.90;;;;;;5022647;28;20117;-56
2021/03/22 10:15:10;;;;;;;1.77;0.93;;;4.90;99.90;;;;;;5033288;28;20047;-55
2021/03/22 10:17:43;;;;;;;1.40;0.90;;;4.90;99.90;;;;;;5017246;28;20048;-59
2021/03/22 10:20:42;;;;;;;3.28;0.95;;;4.60;99.90;;;;;;5031750;28;20140;-51
2021/03/22 10:23:30;;;;;;;2.33;1.23;;;4.40;99.90;;;;;;5030205;28;20056;-56
2021/03/22 10:26:35;;;;;;;2.83;1.20;;;4.30;99.90;;;;;;5022483;28;20036;-54
2021/03/22 10:29:10;;;;;;;1.90;1.02;;;4.30;99.90;;;;;;5029252;28;20379;-56
2021/03/22 10:32:25;;;;;;;3.53;1.63;;;4.30;99.90;;;;;;5028776;28;20044;-56
2021/03/22 10:35:14;;;;;;;2.22;1.15;;;4.20;99.90;;;;;;5017969;28;20137;-58
2021/03/22 10:37:46;;;;;;;4.60;1.50;;;4.10;99.90;;;;;;5029237;28;20075;-52
2021/03/22 10:40:34;;;;;;;4.10;1.67;;;4.20;99.90;;;;;;4992121;28;20501;-56
2021/03/22 10:43:00;;;;;;;3.55;1.50;;;4.40;99.90;;;;;;5029680;28;20025;-53
2021/03/22 10:45:28;;;;;;;2.47;1.10;;;4.40;99.90;;;;;;5033497;28;20132;-54
2021/03/22 10:47:56;;;;;;;3.65;1.20;;;4.30;99.90;;;;;;5024360;28;20497;-55
2021/03/22 10:50:32;;;;;;;3.08;1.40;;;4.30;99.90;;;;;;5026906;28;20545;-51
2021/03/22 10:53:11;;;;;;;3.08;1.50;;;4.20;99.90;;;;;;5032898;28;20071;-56
2021/03/22 10:55:47;;;;;;;2.78;1.20;;;4.10;99.90;;;;;;5027428;28;20064;-56
2021/03/22 10:58:21;;;;;;;;;;;4.10;99.90;;;;;;5032098;28;20033;-55
2021/03/22 11:00:47;;;;;;;3.38;1.60;;;4.10;99.90;;;;;;5020635;28;20594;-52
2021/03/22 11:03:20;;;;;;;5.10;2.42;;;4.10;99.90;;;;;;5023078;28;20037;-57
2021/03/22 11:05:46;;;;;;;4.93;1.70;;;4.40;99.90;;;;;;5026510;28;20037;-54
2021/03/22 11:08:33;;;;;;;4.75;1.73;;;4.30;99.90;;;;;;5025236;28;20039;-52
2021/03/22 11:11:19;;;;;;;3.15;1.58;;;4.40;99.90;;;;;;5020900;28;20028;-55
2021/03/22 11:14:06;;;;;;;4.50;1.50;;;4.30;99.90;;;;;;5021694;28;20437;-54
2021/03/22 11:16:57;;;;;;;3.22;1.40;;;4.20;99.90;;;;;;5020051;28;20049;-53
2021/03/22 11:19:48;;;;;;;3.42;1.48;;;4.10;99.90;;;;;;5023855;28;20111;-54
2021/03/22 11:22:39;;;;;;;5.65;1.83;;;4.10;99.90;;;;;;5020815;28;20045;-54
2021/03/22 11:25:33;;;;;;;4.22;1.40;;;4.00;99.90;;;;;;5014530;28;20033;-57
2021/03/22 11:28:19;;;;;;;3.05;1.05;;;4.00;99.90;;;;;;5028810;28;20033;-54
2021/03/22 11:30:53;;;;;;;2.92;1.40;;;4.20;99.90;;;;;;5021940;28;20445;-57
2021/03/22 11:33:41;;;;;;;3.28;1.50;;;4.30;99.90;;;;;;5023994;28;20700;-53
2021/03/22 11:36:33;;;;;;;4.50;1.40;;;4.30;99.90;;;;;;5022577;28;20039;-53
2021/03/22 11:39:27;;;;;;;4.50;2.78;;;4.50;99.90;;;;;;5031257;28;20082;-55
2021/03/22 11:42:20;;;;;;;7.95;3.08;;;4.60;99.90;;;;;;5034776;28;20078;-54
2021/03/22 11:45:35;;;;;;;3.65;1.95;;;4.50;99.90;;;;;;5021904;28;20095;-56
2021/03/22 11:48:21;;;;;;;4.22;1.67;;;4.50;99.90;;;;;;5001083;28;20041;-57
2021/03/22 11:51:10;;;;;;;4.28;1.70;;;4.40;99.90;;;;;;5024181;28;20025;-58
2021/03/22 11:54:12;;;;;;;2.88;1.60;;;4.30;99.90;;;;;;5009619;28;20850;-58
2021/03/22 11:56:41;;;;;;;5.25;1.70;;;4.30;99.90;;;;;;5022247;28;20037;-49
2021/03/22 11:59:25;;;;;;;3.35;1.85;;;4.20;99.90;;;;;;5030255;28;20040;-53
2021/03/22 12:02:12;;;;;;;9.48;5.28;;;4.30;99.90;;;;;;5018377;28;20072;-51
2021/03/22 12:05:18;;;;;;;5.00;2.78;;;4.30;99.90;;;;;;5024474;28;20080;-56
2021/03/22 12:09:01;;;;;;;3.47;1.40;;;4.30;99.90;;;;;;5020753;28;20366;-58
2021/03/22 12:11:50;;;;;;;3.97;1.70;;;4.20;99.90;;;;;;4955673;28;20118;-57
2021/03/22 12:14:36;;;;;;;4.50;2.00;;;4.30;99.90;;;;;;4957726;28;20111;-51
2021/03/22 12:17:28;;;;;;;3.75;1.55;;;4.40;99.90;;;;;;5006220;28;20029;-56
2021/03/22 12:20:27;;;;;;;4.13;1.80;;;4.30;99.90;;;;;;5014103;28;20037;-55
2021/03/22 12:23:13;;;;;;;5.55;2.10;;;4.30;99.90;;;;;;5018282;28;20033;-57
2021/03/22 12:25:47;;;;;;;6.07;2.10;;;4.30;99.90;;;;;;5031495;28;20092;-52
2021/03/22 12:28:12;;;;;;;4.28;2.10;;;4.30;99.90;;;;;;5027197;28;20017;-53
2021/03/22 12:30:38;;;;;;;5.60;2.42;;;4.20;99.90;;;;;;5024681;28;20036;-53
2021/03/22 12:33:04;;;;;;;5.25;1.95;;;4.20;99.90;;;;;;5041103;28;20140;-53
2021/03/22 12:35:36;;;;;;;7.22;2.10;;;4.20;99.90;;;;;;5033411;28;20033;-55
2021/03/22 12:38:04;;;;;;;4.00;2.10;;;4.30;99.90;;;;;;5032538;28;20036;-55
2021/03/22 12:40:30;;;;;;;6.75;2.60;;;4.40;99.90;;;;;;5033067;28;20037;-49
2021/03/22 12:42:56;;;;;;;7.40;2.65;;;4.40;99.90;;;;;;5024171;28;20033;-52
2021/03/22 12:45:29;;;;;;;4.13;2.15;;;4.50;99.90;;;;;;5028357;28;20120;-48
2021/03/22 12:47:55;;;;;;;5.53;2.50;;;4.50;99.90;;;;;;5027418;28;20477;-53
2021/03/22 12:50:36;;;;;;;4.45;2.90;;;4.60;99.90;;;;;;5031835;28;20689;-48
2021/03/22 12:53:03;;;;;;;5.20;2.90;;;4.70;99.90;;;;;;5028465;28;20032;-55
2021/03/22 12:55:30;;;;;;;5.95;2.60;;;4.80;99.90;;;;;;5007354;28;20049;-52
2021/03/22 12:57:59;;;;;;;8.02;3.67;;;4.90;99.90;;;;;;5031129;28;20029;-53
2021/03/22 13:00:27;;;;;;;6.35;3.10;;;4.80;99.90;;;;;;5029047;28;20048;-55
2021/03/22 13:03:22;;;;;;;4.32;2.55;;;4.70;99.90;;;;;;5027228;28;20045;-50
2021/03/22 13:05:50;;;;;;;7.40;3.50;;;4.60;99.90;;;;;;5019231;28;20408;-54
2021/03/22 13:08:16;;;;;;;6.32;3.45;;;4.70;99.90;;;;;;5024448;28;20026;-54
2021/03/22 13:10:41;;;;;;;;;;;4.80;99.90;;;;;;5009906;28;20088;-56
2021/03/22 13:13:07;;;;;;;9.05;3.55;;;4.80;99.90;;;;;;5023646;28;19954;-52
2021/03/22 13:15:40;;;;;;;5.25;2.80;;;4.90;99.90;;;;;;5009615;28;20045;-56
2021/03/22 13:18:16;;;;;;;4.35;2.80;;;5.00;99.90;;;;;;5029716;28;20030;-58
2021/03/22 13:20:43;;;;;;;7.38;3.00;;;5.10;99.90;;;;;;5026349;28;20725;-59
2021/03/22 13:23:14;;;;;;;6.55;3.13;;;5.00;99.90;;;;;;5020184;28;20044;-57
2021/03/22 13:25:39;;;;;;;4.00;2.60;;;5.00;99.90;;;;;;5031079;28;20038;-63
2021/03/22 13:28:13;;;;;;;;;;;5.00;99.90;;;;;;5042135;28;20044;-59
2021/03/22 13:30:39;;;;;;;6.03;3.05;;;4.70;99.90;;;;;;5037117;28;19917;-56
2021/03/22 13:33:04;;;;;;;5.68;3.85;;;4.60;99.90;;;;;;5023360;28;20481;-57
2021/03/22 13:35:30;;;;;;;6.25;2.92;;;4.60;99.90;;;;;;5034084;28;20052;-53
2021/03/22 13:37:55;;;;;;;;;;;4.70;99.90;;;;;;5035627;28;20055;-53
2021/03/22 13:40:21;;;;;;;4.75;2.72;;;4.70;99.90;;;;;;5028897;28;19955;-53
2021/03/22 13:42:47;;;;;;;;;;;4.80;99.90;;;;;;5030334;28;20041;-52
2021/03/22 13:45:23;;;;;;;6.70;3.22;;;4.80;99.90;;;;;;5026677;28;19909;-54
2021/03/22 13:47:49;;;;;;;3.50;2.25;;;4.70;99.90;;;;;;5031570;28;20569;-52
2021/03/22 13:50:15;;;;;;;4.32;2.40;;;4.70;99.90;;;;;;5035603;28;20099;-51
2021/03/22 13:52:41;;;;;;;5.75;2.33;;;4.90;99.90;;;;;;5026078;28;20037;-54
2021/03/22 13:55:08;;;;;;;3.92;2.55;;;5.10;99.90;;;;;;5033098;28;20055;-52
2021/03/22 13:57:33;;;;;;;4.32;2.65;;;5.00;99.90;;;;;;5013989;28;20037;-53
2021/03/22 13:59:59;;;;;;;;;;;5.00;99.90;;;;;;5035664;28;20078;-51
2021/03/22 14:02:25;;;;;;;4.63;2.28;;;4.90;99.90;;;;;;5032368;28;19948;-56
2021/03/22 14:04:51;;;;;;;6.25;2.60;;;4.90;99.90;;;;;;5026633;28;20049;-57
2021/03/22 14:07:17;;;;;;;3.97;2.63;;;5.00;99.90;;;;;;5027151;28;20029;-57
2021/03/22 14:09:42;;;;;;;;;;;5.00;99.90;;;;;;5037299;28;20046;-56
2021/03/22 14:12:09;;;;;;;5.63;2.78;;;5.00;99.90;;;;;;5036527;28;19935;-54
2021/03/22 14:14:35;;;;;;;6.30;2.80;;;5.00;99.90;;;;;;5034178;28;20096;-55
2021/03/22 14:17:00;;;;;;;4.80;2.78;;;4.90;99.90;;;;;;5028559;28;20056;-56
2021/03/22 14:19:26;;;;;;;;;;;5.00;99.90;;;;;;5027729;28;20049;-52
2021/03/22 14:21:52;;;;;;;7.90;4.10;;;5.00;99.90;;;;;;4997247;28;284003;-54
2021/03/22 14:24:17;;;;;;;;;;;5.10;99.90;;;;;;5043409;28;20481;-59
2021/03/22 14:26:43;;;;;;;4.65;2.60;;;5.10;99.90;;;;;;5040854;28;20104;-56
2021/03/22 14:29:09;;;;;;;4.90;2.90;;;5.00;99.90;;;;;;5040522;28;20098;-57
2021/03/22 14:31:34;;;;;;;6.70;2.70;;;5.10;99.90;;;;;;5029581;28;20048;-55
2021/03/22 14:34:00;;;;;;;;;;;5.10;99.90;;;;;;5024321;28;20456;-53
2021/03/22 14:36:29;;;;;;;5.05;2.13;;;5.20;99.90;;;;;;5020092;28;19917;-53